La Vernia, Texas
Current Conditions -  °F | °C
As of 9:58 PM on Saturday 22 Nov 2014 (Local Time) from KRND Reporting Station
Clear Clear  
Wind Chill: 62°   Ceiling: Unl
Heat Index: 62°   Visibility: 10mi
Dew Point: 55°   Wind: 0mph
Humidity: 78%   Direction: NA
Pressure: 29.71"   Gusts: NA
Location:  29.36°N, 98.12°W
Report Text: KRND 230358Z AUTO 00000KT 10SM CLR 17/13 A2971 RMK AO2 RAE0311DZB0311E0325 PRESFR SLP056 P0001 T01680130
Loading
Personal Weather Stations






























Interactive Weather Map New forecast layout! Learn more

10-Day Weather Forecast

Advertisements
Track Severe Weather on mobile